Main page
METAR-TAF:

METAR-TAF

Airports :

Davenport Municipal Airport

Davenport, Iowa, United States

latitude: 41-36-50N, longitude: 090-35-29W, elevation: 751 ft

Current weather observation

The report was made 59 minutes ago, at 09:52 UTC
Wind 20 mph from the East with gusts up to 29 mph
Temperature 57°F
Humidity 41%
Pressure 29.88 in. Hg
Visibility: 10 miles
Clear sky

METAR: KDVN 160952Z AUTO 10017G25KT 10SM CLR 14/01 A2988 RMK AO2 SLP113 T01440006

Time: 05:51 (10:51 UTC)


TAF: missing

Weather observations and forecasts of more than 4000 airports (METAR and TAF reports).

The available stations are represented by yellow and red dots on the map.

Hover mouse over dot to see the name of the station.

Then click to see weather observations and forecasts.

To change the map : click on the green buttons with a black cross to zoom in, on the green button with a dash to zoom out, or on the green arrows for adjacent maps.


METAR-TAF: